Language selection

My Weather Profile Weather Topics  | 

Lake of the Woods: Past 24 Hour Conditions

 

Armstrong Airport

05:00 AM EST 30 January 2023
Disclaimer

This table is a summary of hourly weather conditions for the past 24 hours.
Please note that these observations might not always be representative of weather conditions over their associated marine area.

Date / Time
(EST)
Wind(knots) Conditions Visibility(km) Pressure(kPa) Air tempC) Relative humidity(%) Dew pointC) Wind Chill
30 January 2023
5:00 calm Clear 16 102.8 -38 67 -42 *
4:00 calm Clear 16 102.8 -37 68 -41 *
3:00 W 2 Clear 16 102.8 -35 69 -39 -40
2:00 W 3 Clear 16 102.8 -34 72 -37 -40
1:00 NW 2 Clear 16 102.7 -31 76 -34 -36
0:00 WNW 5 Light Snow 16 102.7 -27 76 -30 -35
29 January 2023
23:00 W 6 Mostly Cloudy 16 102.7 -25 73 -29 -34
22:00 WSW 4 Clear 16 102.7 -26 75 -29 -33
21:00 W 5 Clear 16 102.7 -24 69 -28 -31
20:00 WSW 6 Mainly Clear 16 102.7 -24 71 -28 -33
19:00 WSW 5 Partly Cloudy 16 102.7 -23 69 -27 -31
18:00 WSW 5 Mainly Clear 16 102.6 -22 66 -27 -29
17:00 WSW 8 gust 15 Mostly Cloudy 16 102.6 -21 60 -27 -30
16:00 NW 5 Cloudy 11 102.6 -20 63 -25 -27
15:00 W 9 Cloudy 16 102.6 -20 56 -27 -30
14:00 WNW 9 Mostly Cloudy 16 102.6 -21 57 -27 -31
13:00 NW 10 gust 15 Sunny 16 102.7 -22 59 -27 -32
12:00 WNW 12 Sunny 16 102.8 -23 67 -27 -34
11:00 WNW 6 Sunny 16 102.8 -25 75 -29 -34
10:00 calm Mainly Sunny 16 102.9 -29 77 -32 *
9:00 calm Mainly Sunny 16 102.9 -34 69 -38 *
8:00 SSW 2 Clear 16 102.9 -33 73 -36 -37
7:00 calm Clear 15 102.9 -33 73 -36 *
6:00 SW 3 Clear 16 102.8 -32 75 -35 -38
5:00 WSW 4 Clear 16 102.8 -31 79 -33 -39

Zoom-in to make a selection

Map of Great Lakes - Lake Superior marine weather areas Mid Superior - 45001 East Superior - 45004 West Superior - 45006 Slate Island - 45136 Lake Of the Woods - 45148 Kenora Airport Royal Island Armstrong Airport Caribou Island Marathon Airport Pukaskwa National Park Thunder Bay Airport Welcome Island Little Flatland Island Sault Ste. Marie Airport Wawa Airport
Legend:
buoy Buoy
land station Land Station

Great Lakes - Lake Superior Area

Another Region

What we are doing

Date modified: